sensor_id;sensor_type;location;lat;lon;timestamp;pressure;altitude;pressure_sealevel;temperature;humidity
71504;BME280;59323;50.874;7.028;2024-02-23T00:02:05;98632.84;;;6.33;100.00
71504;BME280;59323;50.874;7.028;2024-02-23T00:04:31;98639.78;;;6.30;100.00
71504;BME280;59323;50.874;7.028;2024-02-23T00:06:58;98640.56;;;6.31;100.00
71504;BME280;59323;50.874;7.028;2024-02-23T00:09:24;98643.25;;;6.27;100.00
71504;BME280;59323;50.874;7.028;2024-02-23T00:11:52;98632.47;;;6.20;100.00
71504;BME280;59323;50.874;7.028;2024-02-23T00:14:20;98659.44;;;6.20;100.00
71504;BME280;59323;50.874;7.028;2024-02-23T00:16:46;98657.91;;;6.19;100.00
71504;BME280;59323;50.874;7.028;2024-02-23T00:19:11;98662.16;;;6.13;100.00
71504;BME280;59323;50.874;7.028;2024-02-23T00:21:37;98682.19;;;6.12;100.00
71504;BME280;59323;50.874;7.028;2024-02-23T00:24:04;98672.94;;;6.10;100.00
71504;BME280;59323;50.874;7.028;2024-02-23T00:26:29;98691.03;;;6.06;100.00
71504;BME280;59323;50.874;7.028;2024-02-23T00:28:57;98697.56;;;6.04;100.00
71504;BME280;59323;50.874;7.028;2024-02-23T00:31:22;98689.09;;;5.99;100.00
71504;BME280;59323;50.874;7.028;2024-02-23T00:33:47;98689.88;;;5.96;100.00
71504;BME280;59323;50.874;7.028;2024-02-23T00:36:13;98692.94;;;5.98;100.00
71504;BME280;59323;50.874;7.028;2024-02-23T00:38:42;98695.63;;;5.94;100.00
71504;BME280;59323;50.874;7.028;2024-02-23T00:41:10;98707.19;;;5.98;100.00
71504;BME280;59323;50.874;7.028;2024-02-23T00:43:41;98711.03;;;5.94;100.00
71504;BME280;59323;50.874;7.028;2024-02-23T00:46:07;98703.31;;;5.89;100.00
71504;BME280;59323;50.874;7.028;2024-02-23T00:48:33;98712.50;;;5.84;100.00
71504;BME280;59323;50.874;7.028;2024-02-23T00:50:58;98711.00;;;5.87;100.00
71504;BME280;59323;50.874;7.028;2024-02-23T00:53:24;98711.72;;;5.80;100.00
71504;BME280;59323;50.874;7.028;2024-02-23T00:55:54;98716.72;;;5.74;100.00
71504;BME280;59323;50.874;7.028;2024-02-23T00:58:22;98716.72;;;5.71;100.00
71504;BME280;59323;50.874;7.028;2024-02-23T01:00:47;98740.19;;;5.67;100.00
71504;BME280;59323;50.874;7.028;2024-02-23T01:03:15;98737.09;;;5.65;100.00
71504;BME280;59323;50.874;7.028;2024-02-23T01:05:40;98742.47;;;5.61;100.00
71504;BME280;59323;50.874;7.028;2024-02-23T01:08:07;98752.47;;;5.61;100.00
71504;BME280;59323;50.874;7.028;2024-02-23T01:10:33;98767.13;;;5.63;100.00
71504;BME280;59323;50.874;7.028;2024-02-23T01:12:58;98770.16;;;5.58;100.00
71504;BME280;59323;50.874;7.028;2024-02-23T01:15:23;98770.91;;;5.52;100.00
71504;BME280;59323;50.874;7.028;2024-02-23T01:17:51;98780.16;;;5.51;100.00
71504;BME280;59323;50.874;7.028;2024-02-23T01:20:19;98777.06;;;5.49;100.00
71504;BME280;59323;50.874;7.028;2024-02-23T01:22:49;98778.19;;;5.44;100.00
71504;BME280;59323;50.874;7.028;2024-02-23T01:25:14;98777.03;;;5.45;100.00
71504;BME280;59323;50.874;7.028;2024-02-23T01:27:43;98775.47;;;5.40;100.00
71504;BME280;59323;50.874;7.028;2024-02-23T01:30:10;98778.56;;;5.43;100.00
71504;BME280;59323;50.874;7.028;2024-02-23T01:32:37;98778.94;;;5.41;100.00
71504;BME280;59323;50.874;7.028;2024-02-23T01:35:08;98785.84;;;5.35;100.00
71504;BME280;59323;50.874;7.028;2024-02-23T01:37:34;98780.81;;;5.30;100.00
71504;BME280;59323;50.874;7.028;2024-02-23T01:40:00;98797.75;;;5.30;100.00
71504;BME280;59323;50.874;7.028;2024-02-23T01:42:25;98798.50;;;5.31;100.00
71504;BME280;59323;50.874;7.028;2024-02-23T01:44:53;98799.66;;;5.26;100.00
71504;BME280;59323;50.874;7.028;2024-02-23T01:47:21;98799.28;;;5.28;100.00
71504;BME280;59323;50.874;7.028;2024-02-23T01:49:48;98810.41;;;5.26;100.00
71504;BME280;59323;50.874;7.028;2024-02-23T01:52:17;98816.97;;;5.29;100.00
71504;BME280;59323;50.874;7.028;2024-02-23T01:54:44;98811.94;;;5.24;100.00
71504;BME280;59323;50.874;7.028;2024-02-23T01:57:14;98821.88;;;5.20;100.00
71504;BME280;59323;50.874;7.028;2024-02-23T01:59:42;98823.78;;;5.16;100.00
71504;BME280;59323;50.874;7.028;2024-02-23T02:02:08;98820.69;;;5.14;100.00
71504;BME280;59323;50.874;7.028;2024-02-23T02:04:36;98831.84;;;5.12;100.00
71504;BME280;59323;50.874;7.028;2024-02-23T02:07:05;98831.06;;;5.12;100.00
71504;BME280;59323;50.874;7.028;2024-02-23T02:09:30;98838.38;;;5.11;100.00
71504;BME280;59323;50.874;7.028;2024-02-23T02:11:56;98831.84;;;5.12;100.00
71504;BME280;59323;50.874;7.028;2024-02-23T02:14:23;98824.13;;;5.10;100.00
71504;BME280;59323;50.874;7.028;2024-02-23T02:16:49;98829.13;;;5.08;100.00
71504;BME280;59323;50.874;7.028;2024-02-23T02:19:14;98841.03;;;5.07;100.00
71504;BME280;59323;50.874;7.028;2024-02-23T02:21:41;98842.97;;;5.10;100.00
71504;BME280;59323;50.874;7.028;2024-02-23T02:24:07;98844.47;;;5.04;100.00
71504;BME280;59323;50.874;7.028;2024-02-23T02:26:35;98852.16;;;5.02;100.00
71504;BME280;59323;50.874;7.028;2024-02-23T02:29:06;98848.31;;;5.03;100.00
71504;BME280;59323;50.874;7.028;2024-02-23T02:31:33;98841.78;;;5.04;100.00
71504;BME280;59323;50.874;7.028;2024-02-23T02:34:03;98844.44;;;5.01;100.00
71504;BME280;59323;50.874;7.028;2024-02-23T02:36:28;98856.75;;;5.02;100.00
71504;BME280;59323;50.874;7.028;2024-02-23T02:38:54;98852.53;;;5.01;100.00
71504;BME280;59323;50.874;7.028;2024-02-23T02:41:19;98865.94;;;4.97;100.00
71504;BME280;59323;50.874;7.028;2024-02-23T02:43:44;98862.84;;;4.92;100.00
71504;BME280;59323;50.874;7.028;2024-02-23T02:46:10;98869.75;;;4.93;100.00
71504;BME280;59323;50.874;7.028;2024-02-23T02:48:35;98868.59;;;4.90;100.00
71504;BME280;59323;50.874;7.028;2024-02-23T02:51:06;98877.50;;;4.98;100.00
71504;BME280;59323;50.874;7.028;2024-02-23T02:53:32;98873.28;;;5.00;100.00
71504;BME280;59323;50.874;7.028;2024-02-23T02:55:57;98875.16;;;4.96;100.00
71504;BME280;59323;50.874;7.028;2024-02-23T02:58:23;98884.38;;;4.95;100.00
71504;BME280;59323;50.874;7.028;2024-02-23T03:00:51;98884.00;;;4.97;100.00
71504;BME280;59323;50.874;7.028;2024-02-23T03:03:16;98884.75;;;4.94;100.00
71504;BME280;59323;50.874;7.028;2024-02-23T03:05:41;98880.88;;;4.88;100.00
71504;BME280;59323;50.874;7.028;2024-02-23T03:08:09;98870.91;;;4.92;100.00
71504;BME280;59323;50.874;7.028;2024-02-23T03:10:36;98885.13;;;4.92;100.00
71504;BME280;59323;50.874;7.028;2024-02-23T03:13:01;98877.44;;;4.91;100.00
71504;BME280;59323;50.874;7.028;2024-02-23T03:15:27;98877.06;;;4.92;100.00
71504;BME280;59323;50.874;7.028;2024-02-23T03:17:53;98878.19;;;4.91;100.00
71504;BME280;59323;50.874;7.028;2024-02-23T03:20:19;98881.28;;;4.93;100.00
71504;BME280;59323;50.874;7.028;2024-02-23T03:22:45;98890.50;;;4.92;100.00
71504;BME280;59323;50.874;7.028;2024-02-23T03:25:10;98887.34;;;4.83;100.00
71504;BME280;59323;50.874;7.028;2024-02-23T03:27:37;98883.91;;;4.83;100.00
71504;BME280;59323;50.874;7.028;2024-02-23T03:30:04;98888.84;;;4.77;100.00
71504;BME280;59323;50.874;7.028;2024-02-23T03:32:30;98884.25;;;4.81;100.00
71504;BME280;59323;50.874;7.028;2024-02-23T03:35:01;98882.69;;;4.76;100.00
71504;BME280;59323;50.874;7.028;2024-02-23T03:37:29;98883.84;;;4.75;100.00
71504;BME280;59323;50.874;7.028;2024-02-23T03:39:57;98884.91;;;4.67;100.00
71504;BME280;59323;50.874;7.028;2024-02-23T03:42:25;98891.44;;;4.66;100.00
71504;BME280;59323;50.874;7.028;2024-02-23T03:44:50;98890.28;;;4.67;100.00
71504;BME280;59323;50.874;7.028;2024-02-23T03:47:18;98896.78;;;4.63;100.00
71504;BME280;59323;50.874;7.028;2024-02-23T03:49:43;98896.75;;;4.59;100.00
71504;BME280;59323;50.874;7.028;2024-02-23T03:52:12;98894.03;;;4.56;100.00
71504;BME280;59323;50.874;7.028;2024-02-23T03:54:37;98897.03;;;4.54;100.00
71504;BME280;59323;50.874;7.028;2024-02-23T03:57:07;98898.94;;;4.50;100.00
71504;BME280;59323;50.874;7.028;2024-02-23T03:59:32;98886.22;;;4.47;100.00
71504;BME280;59323;50.874;7.028;2024-02-23T04:01:57;98908.06;;;4.42;100.00
71504;BME280;59323;50.874;7.028;2024-02-23T04:04:23;98905.75;;;4.40;100.00
71504;BME280;59323;50.874;7.028;2024-02-23T04:06:48;98902.69;;;4.42;100.00
71504;BME280;59323;50.874;7.028;2024-02-23T04:09:13;98910.38;;;4.43;100.00
71504;BME280;59323;50.874;7.028;2024-02-23T04:11:39;98908.47;;;4.44;100.00
71504;BME280;59323;50.874;7.028;2024-02-23T04:14:06;98911.19;;;4.47;100.00
71504;BME280;59323;50.874;7.028;2024-02-23T04:16:32;98919.25;;;4.47;100.00
71504;BME280;59323;50.874;7.028;2024-02-23T04:18:57;98917.03;;;4.53;100.00
71504;BME280;59323;50.874;7.028;2024-02-23T04:21:24;98917.09;;;4.57;100.00
71504;BME280;59323;50.874;7.028;2024-02-23T04:23:52;98922.84;;;4.55;100.00
71504;BME280;59323;50.874;7.028;2024-02-23T04:26:17;98915.09;;;4.54;100.00
71504;BME280;59323;50.874;7.028;2024-02-23T04:28:43;98916.97;;;4.50;100.00
71504;BME280;59323;50.874;7.028;2024-02-23T04:31:09;98923.91;;;4.51;100.00
71504;BME280;59323;50.874;7.028;2024-02-23T04:33:35;98923.91;;;4.51;100.00
71504;BME280;59323;50.874;7.028;2024-02-23T04:36:01;98919.25;;;4.47;100.00
71504;BME280;59323;50.874;7.028;2024-02-23T04:38:28;98927.34;;;4.47;100.00
71504;BME280;59323;50.874;7.028;2024-02-23T04:40:53;98927.69;;;4.46;100.00
71504;BME280;59323;50.874;7.028;2024-02-23T04:43:23;98932.31;;;4.45;100.00
71504;BME280;59323;50.874;7.028;2024-02-23T04:45:49;98931.91;;;4.43;100.00
71504;BME280;59323;50.874;7.028;2024-02-23T04:48:16;98938.75;;;4.37;100.00
71504;BME280;59323;50.874;7.028;2024-02-23T04:50:42;98928.31;;;4.32;100.00
71504;BME280;59323;50.874;7.028;2024-02-23T04:53:07;98928.34;;;4.36;100.00
71504;BME280;59323;50.874;7.028;2024-02-23T04:55:33;98941.75;;;4.32;100.00
71504;BME280;59323;50.874;7.028;2024-02-23T04:58:01;98932.13;;;4.31;100.00
71504;BME280;59323;50.874;7.028;2024-02-23T05:00:28;98940.56;;;4.30;100.00
71504;BME280;59323;50.874;7.028;2024-02-23T05:02:59;98931.00;;;4.32;100.00
71504;BME280;59323;50.874;7.028;2024-02-23T05:05:27;98937.97;;;4.37;100.00
71504;BME280;59323;50.874;7.028;2024-02-23T05:07:52;98942.25;;;4.41;100.00
71504;BME280;59323;50.874;7.028;2024-02-23T05:10:17;98930.75;;;4.44;100.00
71504;BME280;59323;50.874;7.028;2024-02-23T05:12:43;98936.94;;;4.49;100.00
71504;BME280;59323;50.874;7.028;2024-02-23T05:15:08;98941.19;;;4.50;100.00
71504;BME280;59323;50.874;7.028;2024-02-23T05:17:36;98942.31;;;4.49;100.00
71504;BME280;59323;50.874;7.028;2024-02-23T05:20:03;98938.13;;;4.51;100.00
71504;BME280;59323;50.874;7.028;2024-02-23T05:22:33;98940.00;;;4.47;100.00
71504;BME280;59323;50.874;7.028;2024-02-23T05:24:58;98935.41;;;4.47;100.00
71504;BME280;59323;50.874;7.028;2024-02-23T05:27:25;98931.84;;;4.40;100.00
71504;BME280;59323;50.874;7.028;2024-02-23T05:29:52;98933.41;;;4.41;100.00
71504;BME280;59323;50.874;7.028;2024-02-23T05:32:17;98924.53;;;4.37;100.00
71504;BME280;59323;50.874;7.028;2024-02-23T05:34:46;98923.72;;;4.33;100.00
71504;BME280;59323;50.874;7.028;2024-02-23T05:37:11;98921.34;;;4.28;100.00
71504;BME280;59323;50.874;7.028;2024-02-23T05:39:37;98920.53;;;4.24;100.00
71504;BME280;59323;50.874;7.028;2024-02-23T05:42:04;98918.94;;;4.19;100.00
71504;BME280;59323;50.874;7.028;2024-02-23T05:44:30;98916.25;;;4.19;100.00
71504;BME280;59323;50.874;7.028;2024-02-23T05:46:55;98920.44;;;4.17;100.00
71504;BME280;59323;50.874;7.028;2024-02-23T05:49:20;98925.00;;;4.12;100.00
71504;BME280;59323;50.874;7.028;2024-02-23T05:51:46;98921.53;;;4.12;100.00
71504;BME280;59323;50.874;7.028;2024-02-23T05:54:11;98929.59;;;4.12;100.00
71504;BME280;59323;50.874;7.028;2024-02-23T05:56:39;98928.47;;;4.13;100.00
71504;BME280;59323;50.874;7.028;2024-02-23T05:59:07;98923.91;;;4.17;100.00
71504;BME280;59323;50.874;7.028;2024-02-23T06:01:32;98934.28;;;4.19;100.00
71504;BME280;59323;50.874;7.028;2024-02-23T06:03:57;98927.75;;;4.16;100.00
71504;BME280;59323;50.874;7.028;2024-02-23T06:06:25;98923.50;;;4.15;100.00
71504;BME280;59323;50.874;7.028;2024-02-23T06:08:53;98935.38;;;4.14;100.00
71504;BME280;59323;50.874;7.028;2024-02-23T06:11:18;98928.44;;;4.09;100.00
71504;BME280;59323;50.874;7.028;2024-02-23T06:13:44;98925.31;;;4.07;100.00
71504;BME280;59323;50.874;7.028;2024-02-23T06:16:10;98930.28;;;4.05;100.00
71504;BME280;59323;50.874;7.028;2024-02-23T06:18:36;98933.75;;;4.06;100.00
71504;BME280;59323;50.874;7.028;2024-02-23T06:21:13;98921.81;;;4.03;100.00
71504;BME280;59323;50.874;7.028;2024-02-23T06:23:39;98911.06;;;4.03;100.00
71504;BME280;59323;50.874;7.028;2024-02-23T06:26:07;98905.66;;;4.00;100.00
71504;BME280;59323;50.874;7.028;2024-02-23T06:28:32;98907.19;;;4.01;100.00
71504;BME280;59323;50.874;7.028;2024-02-23T06:30:58;98913.34;;;4.01;100.00
71504;BME280;59323;50.874;7.028;2024-02-23T06:33:31;98907.19;;;4.01;100.00
71504;BME280;59323;50.874;7.028;2024-02-23T06:35:56;98901.06;;;4.00;100.00
71504;BME280;59323;50.874;7.028;2024-02-23T06:38:24;98909.47;;;3.99;100.00
71504;BME280;59323;50.874;7.028;2024-02-23T06:40:49;98917.19;;;4.00;100.00
71504;BME280;59323;50.874;7.028;2024-02-23T06:43:15;98918.78;;;4.05;100.00
71504;BME280;59323;50.874;7.028;2024-02-23T06:45:43;98921.47;;;4.05;100.00
71504;BME280;59323;50.874;7.028;2024-02-23T06:48:08;98911.47;;;4.05;100.00
71504;BME280;59323;50.874;7.028;2024-02-23T06:50:35;98913.84;;;4.10;100.00
71504;BME280;59323;50.874;7.028;2024-02-23T06:53:00;98920.41;;;4.13;100.00
71504;BME280;59323;50.874;7.028;2024-02-23T06:55:25;98925.06;;;4.16;100.00
71504;BME280;59323;50.874;7.028;2024-02-23T06:57:51;98925.47;;;4.18;100.00
71504;BME280;59323;50.874;7.028;2024-02-23T07:00:19;98920.50;;;4.20;100.00
71504;BME280;59323;50.874;7.028;2024-02-23T07:02:45;98922.44;;;4.23;100.00
71504;BME280;59323;50.874;7.028;2024-02-23T07:05:12;98926.31;;;4.26;100.00
71504;BME280;59323;50.874;7.028;2024-02-23T07:07:40;98925.19;;;4.27;100.00
71504;BME280;59323;50.874;7.028;2024-02-23T07:10:07;98923.31;;;4.31;100.00
71504;BME280;59323;50.874;7.028;2024-02-23T07:12:32;98933.41;;;4.41;100.00
71504;BME280;59323;50.874;7.028;2024-02-23T07:14:58;98923.81;;;4.43;100.00
71504;BME280;59323;50.874;7.028;2024-02-23T07:17:23;98935.81;;;4.50;100.00
71504;BME280;59323;50.874;7.028;2024-02-23T07:19:51;98937.81;;;4.56;100.00
71504;BME280;59323;50.874;7.028;2024-02-23T07:22:18;98947.22;;;4.73;100.00
71504;BME280;59323;50.874;7.028;2024-02-23T07:24:44;98953.09;;;4.82;100.00
71504;BME280;59323;50.874;7.028;2024-02-23T07:27:11;98947.03;;;4.92;100.00
71504;BME280;59323;50.874;7.028;2024-02-23T07:29:37;98952.88;;;5.01;100.00
71504;BME280;59323;50.874;7.028;2024-02-23T07:32:02;98953.78;;;5.16;100.00
71504;BME280;59323;50.874;7.028;2024-02-23T07:34:27;98943.47;;;5.22;100.00
71504;BME280;59323;50.874;7.028;2024-02-23T07:36:53;98943.53;;;5.29;100.00
71504;BME280;59323;50.874;7.028;2024-02-23T07:39:20;98942.03;;;5.35;100.00
71504;BME280;59323;50.874;7.028;2024-02-23T07:41:45;98934.00;;;5.38;100.00
71504;BME280;59323;50.874;7.028;2024-02-23T07:44:13;98933.25;;;5.45;100.00
71504;BME280;59323;50.874;7.028;2024-02-23T07:46:38;98929.81;;;5.48;100.00
71504;BME280;59323;50.874;7.028;2024-02-23T07:49:04;98925.63;;;5.54;100.00
71504;BME280;59323;50.874;7.028;2024-02-23T07:51:39;98928.78;;;5.67;100.00
71504;BME280;59323;50.874;7.028;2024-02-23T07:54:04;98921.53;;;5.78;100.00
71504;BME280;59323;50.874;7.028;2024-02-23T07:56:30;98932.88;;;5.98;100.00
71504;BME280;59323;50.874;7.028;2024-02-23T07:59:01;98928.72;;;6.18;100.00
71504;BME280;59323;50.874;7.028;2024-02-23T08:01:28;98944.63;;;6.45;100.00
71504;BME280;59323;50.874;7.028;2024-02-23T08:03:54;98934.31;;;6.64;100.00
71504;BME280;59323;50.874;7.028;2024-02-23T08:06:42;98937.44;;;6.88;100.00
71504;BME280;59323;50.874;7.028;2024-02-23T08:09:13;98939.41;;;7.09;100.00
71504;BME280;59323;50.874;7.028;2024-02-23T08:11:39;98940.19;;;7.27;100.00
71504;BME280;59323;50.874;7.028;2024-02-23T08:14:08;98954.88;;;7.51;100.00
71504;BME280;59323;50.874;7.028;2024-02-23T08:16:36;98951.00;;;7.62;100.00
71504;BME280;59323;50.874;7.028;2024-02-23T08:19:09;98964.50;;;7.77;98.10
71504;BME280;59323;50.874;7.028;2024-02-23T08:21:46;98958.31;;;7.80;98.50
71504;BME280;59323;50.874;7.028;2024-02-23T08:24:20;98955.59;;;7.80;99.35
71504;BME280;59323;50.874;7.028;2024-02-23T08:26:53;98955.25;;;7.81;98.49
71504;BME280;59323;50.874;7.028;2024-02-23T08:29:29;98949.41;;;7.93;97.65
71504;BME280;59323;50.874;7.028;2024-02-23T08:32:00;98949.41;;;7.97;98.81
71504;BME280;59323;50.874;7.028;2024-02-23T08:34:28;98945.56;;;7.91;98.83
71504;BME280;59323;50.874;7.028;2024-02-23T08:36:54;98931.66;;;7.92;97.39
71504;BME280;59323;50.874;7.028;2024-02-23T08:39:24;98944.81;;;7.87;96.61
71504;BME280;59323;50.874;7.028;2024-02-23T08:41:52;98940.16;;;7.84;95.91
71504;BME280;59323;50.874;7.028;2024-02-23T08:44:18;98947.09;;;7.99;96.29
71504;BME280;59323;50.874;7.028;2024-02-23T08:46:43;98951.69;;;8.09;95.47
71504;BME280;59323;50.874;7.028;2024-02-23T08:49:14;98948.97;;;8.13;96.69
71504;BME280;59323;50.874;7.028;2024-02-23T08:51:40;98955.16;;;8.10;95.79
71504;BME280;59323;50.874;7.028;2024-02-23T08:54:05;98950.13;;;8.12;95.53
71504;BME280;59323;50.874;7.028;2024-02-23T08:56:37;98963.28;;;8.10;95.26
71504;BME280;59323;50.874;7.028;2024-02-23T08:59:05;98970.25;;;8.07;96.92
71504;BME280;59323;50.874;7.028;2024-02-23T09:01:30;98974.13;;;8.06;93.65
71504;BME280;59323;50.874;7.028;2024-02-23T09:03:57;98971.78;;;8.08;94.16
71504;BME280;59323;50.874;7.028;2024-02-23T09:06:23;98979.88;;;8.15;95.88
71504;BME280;59323;50.874;7.028;2024-02-23T09:09:03;98971.00;;;8.15;93.68
71504;BME280;59323;50.874;7.028;2024-02-23T09:11:29;98975.66;;;8.11;94.53
71504;BME280;59323;50.874;7.028;2024-02-23T09:13:57;98988.41;;;8.03;94.99
71504;BME280;59323;50.874;7.028;2024-02-23T09:16:22;98984.97;;;7.95;93.55
71504;BME280;59323;50.874;7.028;2024-02-23T09:19:09;98986.13;;;7.91;93.62
71504;BME280;59323;50.874;7.028;2024-02-23T09:21:37;98994.25;;;7.80;93.19
71504;BME280;59323;50.874;7.028;2024-02-23T09:24:16;98990.38;;;7.74;92.77
71504;BME280;59323;50.874;7.028;2024-02-23T09:26:42;98990.00;;;7.69;95.27
71504;BME280;59323;50.874;7.028;2024-02-23T09:29:20;98990.38;;;7.67;95.83
71504;BME280;59323;50.874;7.028;2024-02-23T09:31:47;98988.84;;;7.62;96.50
71504;BME280;59323;50.874;7.028;2024-02-23T09:34:19;98994.25;;;7.55;96.63
71504;BME280;59323;50.874;7.028;2024-02-23T09:36:44;98998.09;;;7.58;96.00
71504;BME280;59323;50.874;7.028;2024-02-23T09:39:10;98992.69;;;7.58;97.17
71504;BME280;59323;50.874;7.028;2024-02-23T09:41:39;98986.50;;;7.68;96.16
71504;BME280;59323;50.874;7.028;2024-02-23T09:44:04;98972.22;;;7.71;96.01
71504;BME280;59323;50.874;7.028;2024-02-23T09:46:37;98977.63;;;7.75;96.53
71504;BME280;59323;50.874;7.028;2024-02-23T09:49:27;98984.97;;;7.88;95.39
71504;BME280;59323;50.874;7.028;2024-02-23T09:51:54;98983.81;;;7.89;95.71
71504;BME280;59323;50.874;7.028;2024-02-23T09:54:22;98976.88;;;7.85;96.07
71504;BME280;59323;50.874;7.028;2024-02-23T09:57:13;98996.53;;;8.07;94.59
71504;BME280;59323;50.874;7.028;2024-02-23T10:00:10;98994.56;;;8.18;93.92
71504;BME280;59323;50.874;7.028;2024-02-23T10:02:36;99005.00;;;8.34;93.27
71504;BME280;59323;50.874;7.028;2024-02-23T10:05:28;98992.19;;;8.41;92.21
71504;BME280;59323;50.874;7.028;2024-02-23T10:08:29;98995.28;;;8.43;93.33
71504;BME280;59323;50.874;7.028;2024-02-23T10:11:34;98998.75;;;8.44;93.02
71504;BME280;59323;50.874;7.028;2024-02-23T10:25:00;99015.00;;;8.51;92.20
71504;BME280;59323;50.874;7.028;2024-02-23T10:27:25;99005.75;;;8.48;92.51
71504;BME280;59323;50.874;7.028;2024-02-23T10:29:57;98991.81;;;8.43;93.41
71504;BME280;59323;50.874;7.028;2024-02-23T10:32:29;99000.69;;;8.43;93.44
71504;BME280;59323;50.874;7.028;2024-02-23T10:35:15;99004.19;;;8.44;91.47
71504;BME280;59323;50.874;7.028;2024-02-23T10:37:53;99006.53;;;8.45;90.37
71504;BME280;59323;50.874;7.028;2024-02-23T10:40:30;99004.56;;;8.49;90.66
71504;BME280;59323;50.874;7.028;2024-02-23T10:42:57;99006.09;;;8.57;91.61
71504;BME280;59323;50.874;7.028;2024-02-23T10:45:28;99011.06;;;8.70;93.15
71504;BME280;59323;50.874;7.028;2024-02-23T10:47:57;99012.13;;;8.90;93.75
71504;BME280;59323;50.874;7.028;2024-02-23T10:50:38;99018.28;;;8.98;91.70
71504;BME280;59323;50.874;7.028;2024-02-23T10:53:07;99020.22;;;8.97;86.81
71504;BME280;59323;50.874;7.028;2024-02-23T10:55:37;99037.66;;;8.93;88.10
71504;BME280;59323;50.874;7.028;2024-02-23T10:58:26;99031.88;;;8.90;90.04
71504;BME280;59323;50.874;7.028;2024-02-23T11:01:19;99022.94;;;8.94;89.77
71504;BME280;59323;50.874;7.028;2024-02-23T11:04:07;99022.88;;;9.08;92.22
71504;BME280;59323;50.874;7.028;2024-02-23T11:06:36;99024.00;;;9.17;86.88
71504;BME280;59323;50.874;7.028;2024-02-23T11:11:58;99010.47;;;9.14;84.99
71504;BME280;59323;50.874;7.028;2024-02-23T11:14:36;99007.75;;;9.14;86.67
71504;BME280;59323;50.874;7.028;2024-02-23T11:17:02;99009.66;;;9.20;85.13
71504;BME280;59323;50.874;7.028;2024-02-23T11:19:50;99010.44;;;9.17;86.57
71504;BME280;59323;50.874;7.028;2024-02-23T11:22:26;99011.25;;;9.14;87.26
71504;BME280;59323;50.874;7.028;2024-02-23T11:24:52;99012.03;;;9.08;87.33
71504;BME280;59323;50.874;7.028;2024-02-23T11:27:24;99008.94;;;9.06;88.64
71504;BME280;59323;50.874;7.028;2024-02-23T11:30:07;99004.28;;;9.10;88.99
71504;BME280;59323;50.874;7.028;2024-02-23T11:32:46;99001.59;;;9.03;89.78
71504;BME280;59323;50.874;7.028;2024-02-23T11:35:30;99009.75;;;9.03;87.01
71504;BME280;59323;50.874;7.028;2024-02-23T11:38:26;98995.06;;;8.97;89.40
71504;BME280;59323;50.874;7.028;2024-02-23T11:41:11;99007.00;;;9.06;89.33
71504;BME280;59323;50.874;7.028;2024-02-23T11:44:02;99010.88;;;9.05;88.47
71504;BME280;59323;50.874;7.028;2024-02-23T11:46:34;98995.84;;;8.97;86.47
71504;BME280;59323;50.874;7.028;2024-02-23T11:48:59;99003.97;;;8.97;84.45
71504;BME280;59323;50.874;7.028;2024-02-23T11:51:26;98998.91;;;9.03;85.24
71504;BME280;59323;50.874;7.028;2024-02-23T11:56:44;98991.59;;;8.93;86.31
71504;BME280;59323;50.874;7.028;2024-02-23T11:59:16;98988.13;;;8.92;84.75
71504;BME280;59323;50.874;7.028;2024-02-23T12:01:41;98989.66;;;8.93;85.23
71504;BME280;59323;50.874;7.028;2024-02-23T12:04:10;98992.41;;;8.89;86.82
71504;BME280;59323;50.874;7.028;2024-02-23T12:06:35;98996.72;;;8.80;88.77
71504;BME280;59323;50.874;7.028;2024-02-23T12:09:09;98989.75;;;8.75;86.09
71504;BME280;59323;50.874;7.028;2024-02-23T12:11:38;98985.50;;;8.74;87.09
71504;BME280;59323;50.874;7.028;2024-02-23T12:14:10;98980.88;;;8.71;86.58
71504;BME280;59323;50.874;7.028;2024-02-23T12:16:39;98988.25;;;8.67;87.86
71504;BME280;59323;50.874;7.028;2024-02-23T12:19:08;98982.44;;;8.69;87.98
71504;BME280;59323;50.874;7.028;2024-02-23T12:21:40;98981.31;;;8.66;87.01
71504;BME280;59323;50.874;7.028;2024-02-23T12:24:12;98985.56;;;8.64;87.42
71504;BME280;59323;50.874;7.028;2024-02-23T12:26:37;98987.09;;;8.65;89.08
71504;BME280;59323;50.874;7.028;2024-02-23T12:29:03;98993.72;;;8.60;88.80
71504;BME280;59323;50.874;7.028;2024-02-23T12:31:31;98981.72;;;8.57;87.02
71504;BME280;59323;50.874;7.028;2024-02-23T12:34:02;98986.78;;;8.52;88.54
71504;BME280;59323;50.874;7.028;2024-02-23T12:36:30;98988.69;;;8.55;88.52
71504;BME280;59323;50.874;7.028;2024-02-23T12:39:00;98987.53;;;8.56;87.06
71504;BME280;59323;50.874;7.028;2024-02-23T12:41:27;98988.31;;;8.56;89.26
71504;BME280;59323;50.874;7.028;2024-02-23T12:43:56;98988.28;;;8.60;89.14
71504;BME280;59323;50.874;7.028;2024-02-23T12:46:21;98987.91;;;8.58;89.13
71504;BME280;59323;50.874;7.028;2024-02-23T12:48:56;98994.84;;;8.63;90.31
71504;BME280;59323;50.874;7.028;2024-02-23T12:51:28;98983.19;;;8.73;88.28
71504;BME280;59323;50.874;7.028;2024-02-23T12:53:57;98987.03;;;8.82;85.52
71504;BME280;59323;50.874;7.028;2024-02-23T12:56:22;98977.34;;;8.85;86.71
71504;BME280;59323;50.874;7.028;2024-02-23T12:58:49;98970.78;;;8.82;88.42
71504;BME280;59323;50.874;7.028;2024-02-23T13:01:16;98974.63;;;8.85;87.13
71504;BME280;59323;50.874;7.028;2024-02-23T13:03:54;98984.69;;;8.84;87.88
71504;BME280;59323;50.874;7.028;2024-02-23T13:06:33;98981.56;;;8.89;88.49
71504;BME280;59323;50.874;7.028;2024-02-23T13:08:59;98992.03;;;8.87;90.54
71504;BME280;59323;50.874;7.028;2024-02-23T13:11:41;98984.72;;;8.81;93.21
71504;BME280;59323;50.874;7.028;2024-02-23T13:14:09;98981.63;;;8.79;93.94
71504;BME280;59323;50.874;7.028;2024-02-23T13:16:37;98979.72;;;8.72;92.48
71504;BME280;59323;50.874;7.028;2024-02-23T13:19:04;98982.44;;;8.69;94.04
71504;BME280;59323;50.874;7.028;2024-02-23T13:21:30;98982.03;;;8.74;92.32
71504;BME280;59323;50.874;7.028;2024-02-23T13:23:57;98981.63;;;8.75;90.95
71504;BME280;59323;50.874;7.028;2024-02-23T13:26:26;98986.28;;;8.78;90.55
71504;BME280;59323;50.874;7.028;2024-02-23T13:28:53;98981.59;;;8.82;89.89
71504;BME280;59323;50.874;7.028;2024-02-23T13:31:19;98975.75;;;8.91;90.01